CheckWX is a tool to help pilots better visualize weather data.  It is not intended as a substitute for an official pre-flight weather briefing.

12:27:05 UTC

KAUW TAF
Wausau Downtown Airport
Wausau, Wisconsin, USA
KAUW 261120Z 2612/2712 VRB03KT P6SM SKC FM261600 21008KT P6SM SCT250 FM270500 20006KT P6SM SCT250 WS016/22035KT FM270800 19007KT P6SM BKN060 WS016/22035KT

Mar-26@
12:00 UTC

Mar-26 @ 12:00 UTC

Mar-26@
16:00 UTC

Mar-26 @ 16:00 UTC

KAUW 261120Z 2612/2712 VRB03KT P6SM SKC
Wind
  • Variable at 3 KTS
Cloud Levels
  • Clear skies

Mar-26@
16:00 UTC

Mar-26 @ 16:00 UTC

Mar-27@
05:00 UTC

Mar-27 @ 05:00 UTC

FM261600 21008KT P6SM SCT250

From

From Standard forecast or significant change

Wind
  • 210° at 8 KTS
Cloud Levels
  • Scattered at 25,000' AGL

Mar-27@
05:00 UTC

Mar-27 @ 05:00 UTC

Mar-27@
08:00 UTC

Mar-27 @ 08:00 UTC

FM270500 20006KT P6SM SCT250 WS016/22035KT

From

From Standard forecast or significant change

Wind
  • 200° at 6 KTS
Cloud Levels
  • Scattered at 25,000' AGL

Mar-27@
08:00 UTC

Mar-27 @ 08:00 UTC

Mar-27@
12:00 UTC

Mar-27 @ 12:00 UTC

FM270800 19007KT P6SM BKN060 WS016/22035KT

From

From Standard forecast or significant change

Wind
  • 190° at 7 KTS
Cloud Levels
  • Broken at 6,000' AGL